Airfield :
LOGIN :

Register | Disclaimer

   EN    FR    IT 

 










Legend :    VFR   Marginal VFR   IFR   Intensive IFR   Very Intensive IFR
Visi :
Ceiling :
>= 8 km
>= 3000ft
5 to 8 km
1000 to 3000 ft
1500m to 5 km
500 to 1000 ft
800 to 1500m
200 to 500 ft
< 800m
< 200 ft
Symbols :   Thunderstorms  Fog  Heavy snow  Heavy precipitations  Wind > 20 kt
SIGMETs :     Misc.  Thunderstorms  Icing  Turbulence  Mountain Waves  Volcanic Ashes






- Airport Elevation : 256 ft
- IATA code : CFR


LFRK - Caen

CURRENT METAR :
  • 212300Z AUTO 04006KT 360V080 9999 BKN035 BKN041 07/02 Q1028

EXPIRED METARs :
  • 212230Z AUTO 04006KT 010V070 9999 BKN036 08/03 Q1028
  • 212200Z AUTO 04007KT 360V070 9999 SCT030 BKN036 BKN042 08/03 Q1028
  • 212130Z AUTO 04008KT 010V090 9999 FEW031 08/03 Q1029
  • 212100Z AUTO 03007KT 9999 FEW034 SCT043 08/03 Q1028
  • 212030Z AUTO 04008KT 9999 BKN035 BKN043 08/03 Q1028
  • 212000Z AUTO 03008KT 9999 FEW037 08/02 Q1028 NOSIG
  • 211930Z AUTO 03009KT 360V060 9999 FEW029 08/02 Q1028 NOSIG
  • 211900Z AUTO 02008KT 9999 FEW029 SCT052 08/04 Q1028 NOSIG
  • 211830Z AUTO 04011KT 9999 FEW025 SCT052 09/04 Q1028 NOSIG

TAF TAF LFRK
Valid from the 21 at 15:00 until the 22 at 00:00 UTC


211400Z 2115/2124 02015G25KT 9999 BKN030
PROB40
TEMPO 2115/2117 4000 SHRA BKN020TCU
BECMG 2119/2121 04010KT
PROB40
TEMPO 2122/2124 4000 SHRA BKN020TCU
Met : +33 2 31 26 68 11



MET'MAP, your aeronautical weather chart ! - Copyright ORBIFLY December 2007 - Disclaimer

ORBIFLY MET'MAP TEAM :

Programming & Development : Alexandra Zaïnal
Original concept : Baudouin d'Aumeries
Technical & hardware support : Manuel Goepfert
Assistance : Marc-Olivier Méhu




SOURCES & CREDITS :

   NOAA